sensor_id;sensor_type;location;lat;lon;timestamp;pressure;altitude;pressure_sealevel;temperature;humidity
12358;BME280;6243;51.244;6.774;2023-03-04T00:00:40;149437.38;;;7.84;100.00
12358;BME280;6243;51.244;6.774;2023-03-04T00:03:05;149458.91;;;7.93;100.00
12358;BME280;6243;51.244;6.774;2023-03-04T00:05:31;149484.28;;;8.03;100.00
12358;BME280;6243;51.244;6.774;2023-03-04T00:07:56;149499.50;;;8.09;100.00
12358;BME280;6243;51.244;6.774;2023-03-04T00:10:23;149515.97;;;8.15;100.00
12358;BME280;6243;51.244;6.774;2023-03-04T00:12:49;149536.31;;;8.23;100.00
12358;BME280;6243;51.244;6.774;2023-03-04T00:15:14;149518.53;;;8.16;100.00
12358;BME280;6243;51.244;6.774;2023-03-04T00:17:40;149528.69;;;8.20;100.00
12358;BME280;6243;51.244;6.774;2023-03-04T00:20:07;149522.31;;;8.18;100.00
12358;BME280;6243;51.244;6.774;2023-03-04T00:22:33;149524.88;;;8.19;100.00
12358;BME280;6243;51.244;6.774;2023-03-04T00:24:58;149433.59;;;7.82;100.00
12358;BME280;6243;51.244;6.774;2023-03-04T00:27:25;149491.88;;;8.06;100.00
12358;BME280;6243;51.244;6.774;2023-03-04T00:29:50;149509.63;;;8.13;100.00
12358;BME280;6243;51.244;6.774;2023-03-04T00:32:16;149517.25;;;8.16;100.00
12358;BME280;6243;51.244;6.774;2023-03-04T00:34:41;149526.13;;;8.19;100.00
12358;BME280;6243;51.244;6.774;2023-03-04T00:37:07;149531.22;;;8.21;100.00
12358;BME280;6243;51.244;6.774;2023-03-04T00:39:32;149535.03;;;8.23;100.00
12358;BME280;6243;51.244;6.774;2023-03-04T00:41:58;149560.41;;;8.33;100.00
12358;BME280;6243;51.244;6.774;2023-03-04T00:44:25;149568.03;;;8.36;100.00
12358;BME280;6243;51.244;6.774;2023-03-04T00:46:50;149568.03;;;8.36;100.00
12358;BME280;6243;51.244;6.774;2023-03-04T00:49:16;149533.75;;;8.22;100.00
12358;BME280;6243;51.244;6.774;2023-03-04T00:51:41;149515.97;;;8.15;100.00
12358;BME280;6243;51.244;6.774;2023-03-04T00:54:07;149503.28;;;8.10;100.00
12358;BME280;6243;51.244;6.774;2023-03-04T00:56:32;149527.41;;;8.20;100.00
12358;BME280;6243;51.244;6.774;2023-03-04T00:58:58;149543.94;;;8.26;100.00
12358;BME280;6243;51.244;6.774;2023-03-04T01:01:25;149546.50;;;8.27;100.00
12358;BME280;6243;51.244;6.774;2023-03-04T01:03:50;149545.22;;;8.27;100.00
12358;BME280;6243;51.244;6.774;2023-03-04T01:06:16;149552.84;;;8.30;100.00
12358;BME280;6243;51.244;6.774;2023-03-04T01:08:41;149545.22;;;8.27;100.00
12358;BME280;6243;51.244;6.774;2023-03-04T01:11:07;149561.69;;;8.33;100.00
12358;BME280;6243;51.244;6.774;2023-03-04T01:13:33;149556.63;;;8.31;100.00
12358;BME280;6243;51.244;6.774;2023-03-04T01:15:58;149562.97;;;8.34;100.00
12358;BME280;6243;51.244;6.774;2023-03-04T01:18:26;149551.56;;;8.29;100.00
12358;BME280;6243;51.244;6.774;2023-03-04T01:20:51;149552.84;;;8.30;100.00
12358;BME280;6243;51.244;6.774;2023-03-04T01:23:17;149542.69;;;8.26;100.00
12358;BME280;6243;51.244;6.774;2023-03-04T01:25:42;149535.03;;;8.23;100.00
12358;BME280;6243;51.244;6.774;2023-03-04T01:28:08;149554.13;;;8.30;100.00
12358;BME280;6243;51.244;6.774;2023-03-04T01:30:33;149554.13;;;8.30;100.00
12358;BME280;6243;51.244;6.774;2023-03-04T01:32:59;149559.19;;;8.32;100.00
12358;BME280;6243;51.244;6.774;2023-03-04T01:35:26;149552.84;;;8.30;100.00
12358;BME280;6243;51.244;6.774;2023-03-04T01:37:51;149541.38;;;8.25;100.00
12358;BME280;6243;51.244;6.774;2023-03-04T01:40:17;149536.31;;;8.23;100.00
12358;BME280;6243;51.244;6.774;2023-03-04T01:42:43;149515.97;;;8.15;100.00
12358;BME280;6243;51.244;6.774;2023-03-04T01:45:12;149570.59;;;8.37;100.00
12358;BME280;6243;51.244;6.774;2023-03-04T01:47:38;149561.69;;;8.33;100.00
12358;BME280;6243;51.244;6.774;2023-03-04T01:50:09;149580.75;;;8.41;100.00
12358;BME280;6243;51.244;6.774;2023-03-04T01:52:38;149569.31;;;8.36;100.00
12358;BME280;6243;51.244;6.774;2023-03-04T01:55:08;149562.97;;;8.34;100.00
12358;BME280;6243;51.244;6.774;2023-03-04T01:57:38;149540.09;;;8.25;100.00
12358;BME280;6243;51.244;6.774;2023-03-04T02:00:14;149560.41;;;8.33;100.00
12358;BME280;6243;51.244;6.774;2023-03-04T02:02:42;149543.94;;;8.26;100.00
12358;BME280;6243;51.244;6.774;2023-03-04T02:05:08;149540.09;;;8.25;100.00
12358;BME280;6243;51.244;6.774;2023-03-04T02:07:33;149554.13;;;8.30;100.00
12358;BME280;6243;51.244;6.774;2023-03-04T02:10:00;149540.09;;;8.25;100.00
12358;BME280;6243;51.244;6.774;2023-03-04T02:12:26;149540.09;;;8.25;100.00
12358;BME280;6243;51.244;6.774;2023-03-04T02:14:52;149519.81;;;8.17;100.00
12358;BME280;6243;51.244;6.774;2023-03-04T02:17:23;149509.63;;;8.13;100.00
12358;BME280;6243;51.244;6.774;2023-03-04T02:19:53;149527.41;;;8.20;100.00
12358;BME280;6243;51.244;6.774;2023-03-04T02:22:20;149543.94;;;8.26;100.00
12358;BME280;6243;51.244;6.774;2023-03-04T02:24:48;149532.47;;;8.22;100.00
12358;BME280;6243;51.244;6.774;2023-03-04T02:27:18;149499.50;;;8.09;100.00
12358;BME280;6243;51.244;6.774;2023-03-04T02:29:44;149528.69;;;8.20;100.00
12358;BME280;6243;51.244;6.774;2023-03-04T02:32:10;149535.03;;;8.23;100.00
12358;BME280;6243;51.244;6.774;2023-03-04T02:34:37;149543.94;;;8.26;100.00
12358;BME280;6243;51.244;6.774;2023-03-04T02:37:05;149509.63;;;8.13;100.00
12358;BME280;6243;51.244;6.774;2023-03-04T02:39:33;149523.63;;;8.18;100.00
12358;BME280;6243;51.244;6.774;2023-03-04T02:42:00;149540.09;;;8.25;100.00
12358;BME280;6243;51.244;6.774;2023-03-04T02:44:29;149536.31;;;8.23;100.00
12358;BME280;6243;51.244;6.774;2023-03-04T02:46:56;149557.91;;;8.32;100.00
12358;BME280;6243;51.244;6.774;2023-03-04T02:49:25;149575.66;;;8.39;100.00
12358;BME280;6243;51.244;6.774;2023-03-04T02:51:52;149561.69;;;8.33;100.00
12358;BME280;6243;51.244;6.774;2023-03-04T02:54:19;149540.09;;;8.25;100.00
12358;BME280;6243;51.244;6.774;2023-03-04T02:56:45;149550.28;;;8.29;100.00
12358;BME280;6243;51.244;6.774;2023-03-04T02:59:11;149559.19;;;8.32;100.00
12358;BME280;6243;51.244;6.774;2023-03-04T03:01:38;149580.75;;;8.41;100.00
12358;BME280;6243;51.244;6.774;2023-03-04T03:04:03;149597.22;;;8.47;100.00
12358;BME280;6243;51.244;6.774;2023-03-04T03:06:29;149592.16;;;8.45;100.00
12358;BME280;6243;51.244;6.774;2023-03-04T03:08:54;149598.50;;;8.48;100.00
12358;BME280;6243;51.244;6.774;2023-03-04T03:11:20;149592.16;;;8.45;100.00
12358;BME280;6243;51.244;6.774;2023-03-04T03:13:45;149584.53;;;8.42;100.00
12358;BME280;6243;51.244;6.774;2023-03-04T03:16:11;149583.25;;;8.42;100.00
12358;BME280;6243;51.244;6.774;2023-03-04T03:18:38;149562.97;;;8.34;100.00
12358;BME280;6243;51.244;6.774;2023-03-04T03:21:03;149585.81;;;8.43;100.00
12358;BME280;6243;51.244;6.774;2023-03-04T03:23:29;149571.84;;;8.37;100.00
12358;BME280;6243;51.244;6.774;2023-03-04T03:25:54;149566.75;;;8.35;100.00
12358;BME280;6243;51.244;6.774;2023-03-04T03:28:20;149538.81;;;8.24;100.00
12358;BME280;6243;51.244;6.774;2023-03-04T03:30:45;149582.03;;;8.41;100.00
12358;BME280;6243;51.244;6.774;2023-03-04T03:33:11;149575.66;;;8.39;100.00
12358;BME280;6243;51.244;6.774;2023-03-04T03:35:38;149593.44;;;8.46;100.00
12358;BME280;6243;51.244;6.774;2023-03-04T03:38:03;149608.66;;;8.52;100.00
12358;BME280;6243;51.244;6.774;2023-03-04T03:40:29;149598.50;;;8.48;100.00
12358;BME280;6243;51.244;6.774;2023-03-04T03:42:54;149598.50;;;8.48;100.00
12358;BME280;6243;51.244;6.774;2023-03-04T03:45:20;149635.28;;;8.63;100.00
12358;BME280;6243;51.244;6.774;2023-03-04T03:47:45;149636.53;;;8.63;100.00
12358;BME280;6243;51.244;6.774;2023-03-04T03:50:11;149617.56;;;8.55;100.00
12358;BME280;6243;51.244;6.774;2023-03-04T03:52:38;149594.66;;;8.46;100.00
12358;BME280;6243;51.244;6.774;2023-03-04T03:55:04;149556.63;;;8.31;100.00
12358;BME280;6243;51.244;6.774;2023-03-04T03:57:29;149557.91;;;8.32;100.00
12358;BME280;6243;51.244;6.774;2023-03-04T03:59:55;149552.84;;;8.30;100.00
12358;BME280;6243;51.244;6.774;2023-03-04T04:02:21;149580.75;;;8.41;100.00
12358;BME280;6243;51.244;6.774;2023-03-04T04:04:46;149580.75;;;8.41;100.00
12358;BME280;6243;51.244;6.774;2023-03-04T04:07:12;149612.44;;;8.53;100.00
12358;BME280;6243;51.244;6.774;2023-03-04T04:09:39;149609.91;;;8.52;100.00
12358;BME280;6243;51.244;6.774;2023-03-04T04:12:05;149628.97;;;8.60;100.00
12358;BME280;6243;51.244;6.774;2023-03-04T04:14:32;149636.53;;;8.63;100.00
12358;BME280;6243;51.244;6.774;2023-03-04T04:16:57;149609.91;;;8.52;100.00
12358;BME280;6243;51.244;6.774;2023-03-04T04:19:23;149613.72;;;8.54;100.00
12358;BME280;6243;51.244;6.774;2023-03-04T04:21:48;149582.03;;;8.41;100.00
12358;BME280;6243;51.244;6.774;2023-03-04T04:24:14;149611.19;;;8.53;100.00
12358;BME280;6243;51.244;6.774;2023-03-04T04:26:41;149634.03;;;8.62;100.00
12358;BME280;6243;51.244;6.774;2023-03-04T04:29:08;149640.38;;;8.65;100.00
12358;BME280;6243;51.244;6.774;2023-03-04T04:31:33;149617.56;;;8.55;100.00
12358;BME280;6243;51.244;6.774;2023-03-04T04:33:59;149639.09;;;8.64;100.00
12358;BME280;6243;51.244;6.774;2023-03-04T04:36:25;149639.09;;;8.64;100.00
12358;BME280;6243;51.244;6.774;2023-03-04T04:38:51;149617.56;;;8.55;100.00
12358;BME280;6243;51.244;6.774;2023-03-04T04:41:19;149630.19;;;8.61;100.00
12358;BME280;6243;51.244;6.774;2023-03-04T04:43:47;149609.91;;;8.52;100.00
12358;BME280;6243;51.244;6.774;2023-03-04T04:46:12;149608.66;;;8.52;100.00
12358;BME280;6243;51.244;6.774;2023-03-04T04:48:38;149599.78;;;8.48;100.00
12358;BME280;6243;51.244;6.774;2023-03-04T04:51:04;149603.56;;;8.50;100.00
12358;BME280;6243;51.244;6.774;2023-03-04T04:53:29;149590.88;;;8.45;100.00
12358;BME280;6243;51.244;6.774;2023-03-04T04:55:55;149634.03;;;8.62;100.00
12358;BME280;6243;51.244;6.774;2023-03-04T04:58:20;149649.25;;;8.68;100.00
12358;BME280;6243;51.244;6.774;2023-03-04T05:00:47;149651.81;;;8.69;100.00
12358;BME280;6243;51.244;6.774;2023-03-04T05:03:13;149635.28;;;8.63;100.00
12358;BME280;6243;51.244;6.774;2023-03-04T05:05:38;149623.84;;;8.58;100.00
12358;BME280;6243;51.244;6.774;2023-03-04T05:08:04;149628.97;;;8.60;100.00
12358;BME280;6243;51.244;6.774;2023-03-04T05:10:30;149628.97;;;8.60;100.00
12358;BME280;6243;51.244;6.774;2023-03-04T05:12:55;149644.19;;;8.66;100.00
12358;BME280;6243;51.244;6.774;2023-03-04T05:15:21;149653.03;;;8.70;100.00
12358;BME280;6243;51.244;6.774;2023-03-04T05:17:48;149667.03;;;8.75;100.00
12358;BME280;6243;51.244;6.774;2023-03-04T05:20:13;149701.28;;;8.89;100.00
12358;BME280;6243;51.244;6.774;2023-03-04T05:22:39;149705.06;;;8.90;100.00
12358;BME280;6243;51.244;6.774;2023-03-04T05:25:05;149694.94;;;8.86;100.00
12358;BME280;6243;51.244;6.774;2023-03-04T05:27:30;149713.97;;;8.94;100.00
12358;BME280;6243;51.244;6.774;2023-03-04T05:29:56;149711.44;;;8.93;100.00
12358;BME280;6243;51.244;6.774;2023-03-04T05:32:21;149710.16;;;8.92;100.00
12358;BME280;6243;51.244;6.774;2023-03-04T05:34:48;149641.63;;;8.65;100.00
12358;BME280;6243;51.244;6.774;2023-03-04T05:37:14;149693.66;;;8.86;100.00
12358;BME280;6243;51.244;6.774;2023-03-04T05:39:39;149677.16;;;8.79;100.00
12358;BME280;6243;51.244;6.774;2023-03-04T05:42:05;149673.38;;;8.78;100.00
12358;BME280;6243;51.244;6.774;2023-03-04T05:44:30;149656.88;;;8.71;100.00
12358;BME280;6243;51.244;6.774;2023-03-04T05:46:56;149655.59;;;8.71;100.00
12358;BME280;6243;51.244;6.774;2023-03-04T05:49:21;149654.31;;;8.70;100.00
12358;BME280;6243;51.244;6.774;2023-03-04T05:51:48;149637.81;;;8.64;100.00
12358;BME280;6243;51.244;6.774;2023-03-04T05:54:14;149661.94;;;8.73;100.00
12358;BME280;6243;51.244;6.774;2023-03-04T05:56:39;149705.06;;;8.90;100.00
12358;BME280;6243;51.244;6.774;2023-03-04T05:59:05;149679.72;;;8.80;100.00
12358;BME280;6243;51.244;6.774;2023-03-04T06:01:30;149667.03;;;8.75;100.00
12358;BME280;6243;51.244;6.774;2023-03-04T06:03:56;149697.50;;;8.87;100.00
12358;BME280;6243;51.244;6.774;2023-03-04T06:06:21;149687.31;;;8.83;100.00
12358;BME280;6243;51.244;6.774;2023-03-04T06:08:48;149710.16;;;8.92;100.00
12358;BME280;6243;51.244;6.774;2023-03-04T06:11:14;149693.66;;;8.86;100.00
12358;BME280;6243;51.244;6.774;2023-03-04T06:13:39;149687.31;;;8.83;100.00
12358;BME280;6243;51.244;6.774;2023-03-04T06:16:05;149684.78;;;8.82;100.00
12358;BME280;6243;51.244;6.774;2023-03-04T06:18:31;149698.72;;;8.88;100.00
12358;BME280;6243;51.244;6.774;2023-03-04T06:20:57;149678.44;;;8.80;100.00
12358;BME280;6243;51.244;6.774;2023-03-04T06:23:24;149691.13;;;8.85;100.00
12358;BME280;6243;51.244;6.774;2023-03-04T06:25:52;149694.94;;;8.86;100.00
12358;BME280;6243;51.244;6.774;2023-03-04T06:28:18;149686.06;;;8.83;100.00
12358;BME280;6243;51.244;6.774;2023-03-04T06:30:43;149672.09;;;8.77;100.00
12358;BME280;6243;51.244;6.774;2023-03-04T06:33:09;149664.47;;;8.74;100.00
12358;BME280;6243;51.244;6.774;2023-03-04T06:35:34;149682.22;;;8.81;100.00
12358;BME280;6243;51.244;6.774;2023-03-04T06:38:00;149623.84;;;8.58;100.00
12358;BME280;6243;51.244;6.774;2023-03-04T06:40:25;149656.88;;;8.71;100.00
12358;BME280;6243;51.244;6.774;2023-03-04T06:42:52;149667.03;;;8.75;100.00
12358;BME280;6243;51.244;6.774;2023-03-04T06:45:18;149655.59;;;8.71;100.00
12358;BME280;6243;51.244;6.774;2023-03-04T06:47:43;149661.94;;;8.73;100.00
12358;BME280;6243;51.244;6.774;2023-03-04T06:50:10;149670.81;;;8.77;100.00
12358;BME280;6243;51.244;6.774;2023-03-04T06:52:36;149664.47;;;8.74;100.00
12358;BME280;6243;51.244;6.774;2023-03-04T06:55:02;149683.50;;;8.82;100.00
12358;BME280;6243;51.244;6.774;2023-03-04T06:57:28;149675.88;;;8.79;100.00
12358;BME280;6243;51.244;6.774;2023-03-04T06:59:55;149697.50;;;8.87;100.00
12358;BME280;6243;51.244;6.774;2023-03-04T07:02:20;149688.56;;;8.84;100.00
12358;BME280;6243;51.244;6.774;2023-03-04T07:04:46;149664.47;;;8.74;100.00
12358;BME280;6243;51.244;6.774;2023-03-04T07:07:11;149696.22;;;8.87;100.00
12358;BME280;6243;51.244;6.774;2023-03-04T07:09:37;149706.34;;;8.91;100.00
12358;BME280;6243;51.244;6.774;2023-03-04T07:12:03;149717.78;;;8.95;100.00
12358;BME280;6243;51.244;6.774;2023-03-04T07:14:28;149691.13;;;8.85;100.00
12358;BME280;6243;51.244;6.774;2023-03-04T07:16:55;149679.72;;;8.80;100.00
12358;BME280;6243;51.244;6.774;2023-03-04T07:19:21;149689.84;;;8.84;100.00
12358;BME280;6243;51.244;6.774;2023-03-04T07:21:46;149700.00;;;8.88;100.00
12358;BME280;6243;51.244;6.774;2023-03-04T07:24:12;149682.22;;;8.81;100.00
12358;BME280;6243;51.244;6.774;2023-03-04T07:26:38;149687.31;;;8.83;100.00
12358;BME280;6243;51.244;6.774;2023-03-04T07:29:03;149716.50;;;8.95;100.00
12358;BME280;6243;51.244;6.774;2023-03-04T07:31:31;149729.19;;;9.00;100.00
12358;BME280;6243;51.244;6.774;2023-03-04T07:34:00;149700.00;;;8.88;100.00
12358;BME280;6243;51.244;6.774;2023-03-04T07:36:26;149719.06;;;8.96;100.00
12358;BME280;6243;51.244;6.774;2023-03-04T07:38:52;149752.03;;;9.09;100.00
12358;BME280;6243;51.244;6.774;2023-03-04T07:41:18;149779.97;;;9.20;100.00
12358;BME280;6243;51.244;6.774;2023-03-04T07:43:43;149792.66;;;9.25;100.00
12358;BME280;6243;51.244;6.774;2023-03-04T07:46:09;149785.03;;;9.22;100.00
12358;BME280;6243;51.244;6.774;2023-03-04T07:48:35;149760.97;;;9.12;100.00
12358;BME280;6243;51.244;6.774;2023-03-04T07:51:06;149736.84;;;9.03;100.00
12358;BME280;6243;51.244;6.774;2023-03-04T07:53:33;149787.59;;;9.23;100.00
12358;BME280;6243;51.244;6.774;2023-03-04T07:55:59;149800.31;;;9.28;100.00
12358;BME280;6243;51.244;6.774;2023-03-04T07:58:24;149801.59;;;9.28;100.00
12358;BME280;6243;51.244;6.774;2023-03-04T08:00:50;149771.09;;;9.16;100.00
12358;BME280;6243;51.244;6.774;2023-03-04T08:03:15;149758.41;;;9.11;100.00
12358;BME280;6243;51.244;6.774;2023-03-04T08:05:41;149809.16;;;9.32;100.00
12358;BME280;6243;51.244;6.774;2023-03-04T08:08:08;149844.72;;;9.46;100.00
12358;BME280;6243;51.244;6.774;2023-03-04T08:10:34;149849.81;;;9.48;100.00
12358;BME280;6243;51.244;6.774;2023-03-04T08:13:00;149839.66;;;9.44;100.00
12358;BME280;6243;51.244;6.774;2023-03-04T08:15:26;149851.09;;;9.48;100.00
12358;BME280;6243;51.244;6.774;2023-03-04T08:17:51;149880.28;;;9.60;100.00
12358;BME280;6243;51.244;6.774;2023-03-04T08:20:17;149854.88;;;9.50;100.00
12358;BME280;6243;51.244;6.774;2023-03-04T08:22:43;149842.16;;;9.45;100.00
12358;BME280;6243;51.244;6.774;2023-03-04T08:25:10;149899.34;;;9.67;100.00
12358;BME280;6243;51.244;6.774;2023-03-04T08:27:35;149929.81;;;9.79;100.00
12358;BME280;6243;51.244;6.774;2023-03-04T08:30:01;149965.38;;;9.93;100.00
12358;BME280;6243;51.244;6.774;2023-03-04T08:32:26;149986.97;;;10.02;100.00
12358;BME280;6243;51.244;6.774;2023-03-04T08:34:52;149993.31;;;10.05;100.00
12358;BME280;6243;51.244;6.774;2023-03-04T08:37:17;150004.75;;;10.09;100.00
12358;BME280;6243;51.244;6.774;2023-03-04T08:39:43;149983.16;;;10.00;100.00
12358;BME280;6243;51.244;6.774;2023-03-04T08:42:10;149989.53;;;10.03;100.00
12358;BME280;6243;51.244;6.774;2023-03-04T08:44:35;150002.25;;;10.08;100.00
12358;BME280;6243;51.244;6.774;2023-03-04T08:47:01;150002.25;;;10.08;100.00
12358;BME280;6243;51.244;6.774;2023-03-04T08:49:27;150003.47;;;10.09;100.00
12358;BME280;6243;51.244;6.774;2023-03-04T08:51:52;150018.78;;;10.15;100.00
12358;BME280;6243;51.244;6.774;2023-03-04T08:54:17;150081.06;;;10.39;100.00
12358;BME280;6243;51.244;6.774;2023-03-04T08:56:43;150092.50;;;10.44;100.00
12358;BME280;6243;51.244;6.774;2023-03-04T08:59:10;150121.72;;;10.55;100.00
12358;BME280;6243;51.244;6.774;2023-03-04T09:01:36;150106.50;;;10.49;100.00
12358;BME280;6243;51.244;6.774;2023-03-04T09:04:01;150124.25;;;10.56;100.00
12358;BME280;6243;51.244;6.774;2023-03-04T09:06:27;150145.88;;;10.65;100.00
12358;BME280;6243;51.244;6.774;2023-03-04T09:08:52;150152.25;;;10.67;100.00
12358;BME280;6243;51.244;6.774;2023-03-04T09:11:18;150159.84;;;10.70;100.00
12358;BME280;6243;51.244;6.774;2023-03-04T09:13:43;150157.31;;;10.69;100.00
12358;BME280;6243;51.244;6.774;2023-03-04T09:16:11;150145.88;;;10.65;100.00
12358;BME280;6243;51.244;6.774;2023-03-04T09:18:37;150152.25;;;10.67;100.00
12358;BME280;6243;51.244;6.774;2023-03-04T09:21:03;150178.91;;;10.78;100.00
12358;BME280;6243;51.244;6.774;2023-03-04T09:23:29;150177.63;;;10.78;100.00
12358;BME280;6243;51.244;6.774;2023-03-04T09:25:54;150111.56;;;10.51;100.00
12358;BME280;6243;51.244;6.774;2023-03-04T09:28:20;150142.03;;;10.63;100.00
12358;BME280;6243;51.244;6.774;2023-03-04T09:30:45;150177.63;;;10.78;100.00
12358;BME280;6243;51.244;6.774;2023-03-04T09:33:12;150191.63;;;10.83;100.00
12358;BME280;6243;51.244;6.774;2023-03-04T09:35:38;150213.25;;;10.92;100.00
12358;BME280;6243;51.244;6.774;2023-03-04T09:38:04;150210.66;;;10.91;100.00
12358;BME280;6243;51.244;6.774;2023-03-04T09:40:32;150206.88;;;10.89;100.00
12358;BME280;6243;51.244;6.774;2023-03-04T09:43:03;150192.91;;;10.84;100.00
12358;BME280;6243;51.244;6.774;2023-03-04T09:45:34;150185.28;;;10.81;100.00
12358;BME280;6243;51.244;6.774;2023-03-04T09:48:01;150196.72;;;10.85;100.00
12358;BME280;6243;51.244;6.774;2023-03-04T09:50:32;150253.94;;;11.08;100.00
12358;BME280;6243;51.244;6.774;2023-03-04T09:53:06;150242.47;;;11.03;100.00
12358;BME280;6243;51.244;6.774;2023-03-04T09:55:38;150273.00;;;11.15;100.00
12358;BME280;6243;51.244;6.774;2023-03-04T09:58:15;150284.47;;;11.20;100.00
12358;BME280;6243;51.244;6.774;2023-03-04T10:00:50;150269.16;;;11.14;100.00
12358;BME280;6243;51.244;6.774;2023-03-04T10:03:20;150295.91;;;11.24;99.88
12358;BME280;6243;51.244;6.774;2023-03-04T10:05:53;150303.50;;;11.27;100.00
12358;BME280;6243;51.244;6.774;2023-03-04T10:08:37;150302.25;;;11.27;100.00
12358;BME280;6243;51.244;6.774;2023-03-04T10:11:07;150339.13;;;11.41;100.00
12358;BME280;6243;51.244;6.774;2023-03-04T10:13:37;150339.13;;;11.41;100.00
12358;BME280;6243;51.244;6.774;2023-03-04T10:16:06;150414.22;;;11.71;99.10
12358;BME280;6243;51.244;6.774;2023-03-04T10:18:35;150461.31;;;11.90;96.21
12358;BME280;6243;51.244;6.774;2023-03-04T10:21:09;150476.56;;;11.96;96.06
12358;BME280;6243;51.244;6.774;2023-03-04T10:23:40;150518.56;;;12.13;95.57
12358;BME280;6243;51.244;6.774;2023-03-04T10:26:11;150560.56;;;12.29;94.05
12358;BME280;6243;51.244;6.774;2023-03-04T10:28:38;150556.72;;;12.28;92.45
12358;BME280;6243;51.244;6.774;2023-03-04T10:31:10;150588.56;;;12.40;91.46
12358;BME280;6243;51.244;6.774;2023-03-04T10:33:37;150601.31;;;12.45;90.77
12358;BME280;6243;51.244;6.774;2023-03-04T10:36:21;150597.44;;;12.44;90.52
12358;BME280;6243;51.244;6.774;2023-03-04T10:38:53;150577.09;;;12.36;89.86
12358;BME280;6243;51.244;6.774;2023-03-04T10:41:20;150556.72;;;12.28;88.73
12358;BME280;6243;51.244;6.774;2023-03-04T10:43:49;150555.47;;;12.27;90.16
12358;BME280;6243;51.244;6.774;2023-03-04T10:46:15;150569.47;;;12.33;88.86
12358;BME280;6243;51.244;6.774;2023-03-04T10:48:42;150554.19;;;12.27;88.77
12358;BME280;6243;51.244;6.774;2023-03-04T10:51:18;150551.63;;;12.26;89.88
12358;BME280;6243;51.244;6.774;2023-03-04T10:53:45;150544.03;;;12.23;88.73
12358;BME280;6243;51.244;6.774;2023-03-04T10:56:31;150523.66;;;12.15;88.92
12358;BME280;6243;51.244;6.774;2023-03-04T10:59:29;150538.94;;;12.21;90.21
12358;BME280;6243;51.244;6.774;2023-03-04T11:01:55;150549.13;;;12.25;89.88
12358;BME280;6243;51.244;6.774;2023-03-04T11:04:22;150568.19;;;12.32;88.98
12358;BME280;6243;51.244;6.774;2023-03-04T11:06:50;150556.72;;;12.28;86.08
12358;BME280;6243;51.244;6.774;2023-03-04T11:09:21;150587.28;;;12.40;86.68
12358;BME280;6243;51.244;6.774;2023-03-04T11:11:48;150611.47;;;12.49;86.85
12358;BME280;6243;51.244;6.774;2023-03-04T11:14:21;150642.03;;;12.61;85.89
12358;BME280;6243;51.244;6.774;2023-03-04T11:16:52;150645.84;;;12.63;85.96
12358;BME280;6243;51.244;6.774;2023-03-04T11:19:20;150635.66;;;12.59;85.12
12358;BME280;6243;51.244;6.774;2023-03-04T11:21:49;150663.69;;;12.70;84.91
12358;BME280;6243;51.244;6.774;2023-03-04T11:24:19;150663.69;;;12.70;84.88
12358;BME280;6243;51.244;6.774;2023-03-04T11:26:50;150654.75;;;12.66;85.19
12358;BME280;6243;51.244;6.774;2023-03-04T11:29:20;150656.03;;;12.67;84.57
12358;BME280;6243;51.244;6.774;2023-03-04T11:31:49;150650.94;;;12.65;85.37
12358;BME280;6243;51.244;6.774;2023-03-04T11:34:29;150608.91;;;12.48;86.14
12358;BME280;6243;51.244;6.774;2023-03-04T11:37:00;150600.03;;;12.45;85.01
12358;BME280;6243;51.244;6.774;2023-03-04T11:39:31;150607.69;;;12.48;85.26
12358;BME280;6243;51.244;6.774;2023-03-04T11:42:02;150620.38;;;12.53;85.70
12358;BME280;6243;51.244;6.774;2023-03-04T11:44:29;150622.94;;;12.54;85.18
12358;BME280;6243;51.244;6.774;2023-03-04T11:47:11;150657.31;;;12.67;85.10
12358;BME280;6243;51.244;6.774;2023-03-04T11:49:52;150653.50;;;12.66;83.36
12358;BME280;6243;51.244;6.774;2023-03-04T11:52:30;150666.19;;;12.71;84.49
12358;BME280;6243;51.244;6.774;2023-03-04T11:55:07;150664.97;;;12.70;85.12
12358;BME280;6243;51.244;6.774;2023-03-04T11:57:49;150659.88;;;12.68;84.23
12358;BME280;6243;51.244;6.774;2023-03-04T12:00:29;150666.19;;;12.71;83.33
12358;BME280;6243;51.244;6.774;2023-03-04T12:03:21;150652.22;;;12.65;83.71
12358;BME280;6243;51.244;6.774;2023-03-04T12:05:58;150649.66;;;12.64;82.61
12358;BME280;6243;51.244;6.774;2023-03-04T12:08:40;150645.84;;;12.63;83.17
12358;BME280;6243;51.244;6.774;2023-03-04T12:11:15;150662.38;;;12.69;84.42
12358;BME280;6243;51.244;6.774;2023-03-04T12:14:01;150666.19;;;12.71;83.75
12358;BME280;6243;51.244;6.774;2023-03-04T12:19:32;150684.03;;;12.78;84.40
12358;BME280;6243;51.244;6.774;2023-03-04T12:22:16;150698.06;;;12.83;84.57
12358;BME280;6243;51.244;6.774;2023-03-04T12:25:08;150705.72;;;12.87;84.15
12358;BME280;6243;51.244;6.774;2023-03-04T12:27:42;150737.53;;;12.99;84.03
12358;BME280;6243;51.244;6.774;2023-03-04T12:30:19;150740.09;;;13.00;84.08
12358;BME280;6243;51.244;6.774;2023-03-04T12:32:56;150696.78;;;12.83;84.10
12358;BME280;6243;51.244;6.774;2023-03-04T12:35:29;150722.25;;;12.93;84.07
12358;BME280;6243;51.244;6.774;2023-03-04T12:40:54;150698.06;;;12.83;84.32
12358;BME280;6243;51.244;6.774;2023-03-04T12:43:32;150718.41;;;12.92;84.63
12358;BME280;6243;51.244;6.774;2023-03-04T12:46:06;150722.25;;;12.93;83.79
12358;BME280;6243;51.244;6.774;2023-03-04T12:48:37;150719.69;;;12.92;83.89
12358;BME280;6243;51.244;6.774;2023-03-04T12:51:20;150724.78;;;12.94;84.78
12358;BME280;6243;51.244;6.774;2023-03-04T12:53:56;150722.25;;;12.93;84.74
12358;BME280;6243;51.244;6.774;2023-03-04T12:56:30;150687.88;;;12.79;84.85
12358;BME280;6243;51.244;6.774;2023-03-04T12:58:58;150720.97;;;12.93;83.84
12358;BME280;6243;51.244;6.774;2023-03-04T13:01:27;150735.00;;;12.98;83.60
12358;BME280;6243;51.244;6.774;2023-03-04T13:04:00;150737.53;;;12.99;83.13
12358;BME280;6243;51.244;6.774;2023-03-04T13:06:33;150723.53;;;12.94;82.66
12358;BME280;6243;51.244;6.774;2023-03-04T13:09:04;150701.84;;;12.85;84.04